sensor_id;sensor_type;location;lat;lon;timestamp;pressure;altitude;pressure_sealevel;temperature;humidity
83246;BME280;73140;46.754;17.714;2024-01-11T00:01:23;101045.06;;;-3.21;71.84
83246;BME280;73140;46.754;17.714;2024-01-11T00:03:49;101048.41;;;-3.33;71.95
83246;BME280;73140;46.754;17.714;2024-01-11T00:06:15;100931.69;;;-3.86;72.14
83246;BME280;73140;46.754;17.714;2024-01-11T00:08:41;101043.47;;;-3.40;72.43
83246;BME280;73140;46.754;17.714;2024-01-11T00:11:06;101020.84;;;-3.42;73.53
83246;BME280;73140;46.754;17.714;2024-01-11T00:13:33;101000.69;;;-3.36;72.85
83246;BME280;73140;46.754;17.714;2024-01-11T00:15:59;100959.75;;;-3.70;73.11
83246;BME280;73140;46.754;17.714;2024-01-11T00:18:26;100917.72;;;-3.88;72.70
83246;BME280;73140;46.754;17.714;2024-01-11T00:20:52;100995.00;;;-3.42;72.06
83246;BME280;73140;46.754;17.714;2024-01-11T00:23:18;100966.41;;;-3.44;71.71
83246;BME280;73140;46.754;17.714;2024-01-11T00:25:44;100938.72;;;-3.65;71.77
83246;BME280;73140;46.754;17.714;2024-01-11T00:28:10;100941.84;;;-3.49;71.55
83246;BME280;73140;46.754;17.714;2024-01-11T00:30:36;100897.09;;;-3.68;71.62
83246;BME280;73140;46.754;17.714;2024-01-11T00:33:03;100963.22;;;-3.31;70.72
83246;BME280;73140;46.754;17.714;2024-01-11T00:35:30;100902.28;;;-3.48;69.80
83246;BME280;73140;46.754;17.714;2024-01-11T00:37:59;100992.34;;;-2.93;69.84
83246;BME280;73140;46.754;17.714;2024-01-11T00:40:25;100991.59;;;-2.92;69.68
83246;BME280;73140;46.754;17.714;2024-01-11T00:42:51;100951.34;;;-3.09;69.94
83246;BME280;73140;46.754;17.714;2024-01-11T00:45:17;100950.06;;;-3.14;70.50
83246;BME280;73140;46.754;17.714;2024-01-11T00:47:44;100909.41;;;-3.55;71.11
83246;BME280;73140;46.754;17.714;2024-01-11T00:50:10;100999.06;;;-3.25;73.28
83246;BME280;73140;46.754;17.714;2024-01-11T00:52:37;100901.47;;;-3.77;72.87
83246;BME280;73140;46.754;17.714;2024-01-11T00:55:05;100979.84;;;-3.48;72.79
83246;BME280;73140;46.754;17.714;2024-01-11T00:57:31;100879.94;;;-4.06;72.90
83246;BME280;73140;46.754;17.714;2024-01-11T00:59:57;100925.44;;;-3.98;73.31
83246;BME280;73140;46.754;17.714;2024-01-11T01:02:23;100989.34;;;-3.77;73.90
83246;BME280;73140;46.754;17.714;2024-01-11T01:04:49;100971.00;;;-3.99;72.79
83246;BME280;73140;46.754;17.714;2024-01-11T01:07:15;100950.16;;;-4.10;73.55
83246;BME280;73140;46.754;17.714;2024-01-11T01:09:42;100890.25;;;-4.45;73.45
83246;BME280;73140;46.754;17.714;2024-01-11T01:12:09;100972.19;;;-3.95;73.37
83246;BME280;73140;46.754;17.714;2024-01-11T01:14:35;100894.09;;;-4.21;73.19
83246;BME280;73140;46.754;17.714;2024-01-11T01:17:01;100953.81;;;-4.08;72.97
83246;BME280;73140;46.754;17.714;2024-01-11T01:19:27;100954.06;;;-4.05;72.66
83246;BME280;73140;46.754;17.714;2024-01-11T01:21:52;100958.41;;;-4.14;72.81
83246;BME280;73140;46.754;17.714;2024-01-11T01:24:18;100973.66;;;-3.89;73.62
83246;BME280;73140;46.754;17.714;2024-01-11T01:26:46;100948.25;;;-4.13;73.54
83246;BME280;73140;46.754;17.714;2024-01-11T01:29:15;100939.84;;;-4.10;73.81
83246;BME280;73140;46.754;17.714;2024-01-11T01:31:41;100971.78;;;-4.00;73.81
83246;BME280;73140;46.754;17.714;2024-01-11T01:34:07;100870.41;;;-4.65;73.14
83246;BME280;73140;46.754;17.714;2024-01-11T01:36:33;100920.78;;;-4.50;73.59
83246;BME280;73140;46.754;17.714;2024-01-11T01:38:59;100967.50;;;-4.09;73.14
83246;BME280;73140;46.754;17.714;2024-01-11T01:41:25;100963.59;;;-4.14;72.62
83246;BME280;73140;46.754;17.714;2024-01-11T01:43:52;100880.50;;;-4.58;73.67
83246;BME280;73140;46.754;17.714;2024-01-11T01:46:22;100967.63;;;-4.08;73.78
83246;BME280;73140;46.754;17.714;2024-01-11T01:48:49;100971.66;;;-4.01;73.28
83246;BME280;73140;46.754;17.714;2024-01-11T01:51:15;100838.50;;;-4.75;73.36
83246;BME280;73140;46.754;17.714;2024-01-11T01:53:41;100871.72;;;-4.60;73.53
83246;BME280;73140;46.754;17.714;2024-01-11T01:56:08;100799.66;;;-5.06;74.16
83246;BME280;73140;46.754;17.714;2024-01-11T01:58:34;100965.38;;;-4.23;74.47
83246;BME280;73140;46.754;17.714;2024-01-11T02:01:03;100952.03;;;-4.47;73.99
83246;BME280;73140;46.754;17.714;2024-01-11T02:03:29;100927.25;;;-4.55;74.40
83246;BME280;73140;46.754;17.714;2024-01-11T02:05:56;100953.63;;;-4.20;73.49
83246;BME280;73140;46.754;17.714;2024-01-11T02:08:22;100865.38;;;-4.63;73.44
83246;BME280;73140;46.754;17.714;2024-01-11T02:10:51;100834.78;;;-4.69;72.99
83246;BME280;73140;46.754;17.714;2024-01-11T02:13:18;100872.75;;;-4.39;72.79
83246;BME280;73140;46.754;17.714;2024-01-11T02:15:47;100984.94;;;-3.78;73.44
83246;BME280;73140;46.754;17.714;2024-01-11T02:18:15;100898.34;;;-3.93;73.80
83246;BME280;73140;46.754;17.714;2024-01-11T02:20:41;100873.50;;;-4.01;73.00
83246;BME280;73140;46.754;17.714;2024-01-11T02:23:10;100792.31;;;-4.44;72.73
83246;BME280;73140;46.754;17.714;2024-01-11T02:25:39;100942.06;;;-3.66;73.62
83246;BME280;73140;46.754;17.714;2024-01-11T02:28:05;100819.97;;;-4.33;72.56
83246;BME280;73140;46.754;17.714;2024-01-11T02:30:32;100839.88;;;-4.21;72.84
83246;BME280;73140;46.754;17.714;2024-01-11T02:32:58;100926.50;;;-3.86;73.28
83246;BME280;73140;46.754;17.714;2024-01-11T02:35:25;100888.19;;;-4.10;72.87
83246;BME280;73140;46.754;17.714;2024-01-11T02:37:52;100898.91;;;-4.16;72.68
83246;BME280;73140;46.754;17.714;2024-01-11T02:40:18;100934.75;;;-3.90;73.37
83246;BME280;73140;46.754;17.714;2024-01-11T02:42:46;100858.22;;;-4.18;73.22
83246;BME280;73140;46.754;17.714;2024-01-11T02:45:12;100862.38;;;-4.10;72.79
83246;BME280;73140;46.754;17.714;2024-01-11T02:47:38;100848.94;;;-4.06;72.26
83246;BME280;73140;46.754;17.714;2024-01-11T02:50:05;100893.31;;;-3.82;72.53
83246;BME280;73140;46.754;17.714;2024-01-11T02:52:32;100896.00;;;-3.90;72.71
83246;BME280;73140;46.754;17.714;2024-01-11T02:54:58;100783.25;;;-4.49;72.22
83246;BME280;73140;46.754;17.714;2024-01-11T02:57:24;100818.72;;;-4.17;73.01
83246;BME280;73140;46.754;17.714;2024-01-11T02:59:52;100885.78;;;-3.99;72.98
83246;BME280;73140;46.754;17.714;2024-01-11T03:02:18;100886.53;;;-4.00;73.99
83246;BME280;73140;46.754;17.714;2024-01-11T03:04:44;100845.97;;;-4.11;76.25
83246;BME280;73140;46.754;17.714;2024-01-11T03:07:10;100757.44;;;-4.59;76.81
83246;BME280;73140;46.754;17.714;2024-01-11T03:09:36;100817.16;;;-4.15;78.01
83246;BME280;73140;46.754;17.714;2024-01-11T03:12:03;100767.03;;;-4.38;78.11
83246;BME280;73140;46.754;17.714;2024-01-11T03:14:37;100805.03;;;-4.16;78.42
83246;BME280;73140;46.754;17.714;2024-01-11T03:17:05;100833.88;;;-3.92;78.41
83246;BME280;73140;46.754;17.714;2024-01-11T03:19:31;100849.66;;;-3.89;78.07
83246;BME280;73140;46.754;17.714;2024-01-11T03:21:59;100793.81;;;-4.07;77.77
83246;BME280;73140;46.754;17.714;2024-01-11T03:24:43;100888.34;;;-3.50;76.94
83246;BME280;73140;46.754;17.714;2024-01-11T03:27:18;100815.94;;;-3.90;77.88
83246;BME280;73140;46.754;17.714;2024-01-11T03:29:47;100867.09;;;-3.86;77.91
83246;BME280;73140;46.754;17.714;2024-01-11T03:32:22;100783.38;;;-4.08;77.11
83246;BME280;73140;46.754;17.714;2024-01-11T03:34:51;100887.19;;;-3.53;75.94
83246;BME280;73140;46.754;17.714;2024-01-11T03:37:17;100779.97;;;-4.07;76.47
83246;BME280;73140;46.754;17.714;2024-01-11T03:39:43;100792.13;;;-4.06;75.55
83246;BME280;73140;46.754;17.714;2024-01-11T03:42:09;100845.66;;;-3.85;75.69
83246;BME280;73140;46.754;17.714;2024-01-11T03:44:38;100858.06;;;-3.81;75.75
83246;BME280;73140;46.754;17.714;2024-01-11T03:47:07;100839.03;;;-4.02;75.66
83246;BME280;73140;46.754;17.714;2024-01-11T03:49:34;100844.84;;;-3.94;75.67
83246;BME280;73140;46.754;17.714;2024-01-11T03:52:00;100808.59;;;-4.35;75.65
83246;BME280;73140;46.754;17.714;2024-01-11T03:54:26;100720.44;;;-4.78;76.26
83246;BME280;73140;46.754;17.714;2024-01-11T03:56:52;100829.28;;;-4.24;77.22
83246;BME280;73140;46.754;17.714;2024-01-11T03:59:20;100882.63;;;-4.15;77.64
83246;BME280;73140;46.754;17.714;2024-01-11T04:01:46;100771.78;;;-4.81;77.46
83246;BME280;73140;46.754;17.714;2024-01-11T04:04:13;100756.69;;;-4.87;78.30
83246;BME280;73140;46.754;17.714;2024-01-11T04:06:41;100765.63;;;-5.02;78.09
83246;BME280;73140;46.754;17.714;2024-01-11T04:09:07;100786.63;;;-4.79;78.38
83246;BME280;73140;46.754;17.714;2024-01-11T04:11:35;100751.88;;;-4.92;80.32
83246;BME280;73140;46.754;17.714;2024-01-11T04:14:01;100712.06;;;-5.14;80.25
83246;BME280;73140;46.754;17.714;2024-01-11T04:16:30;100744.72;;;-4.66;80.90
83246;BME280;73140;46.754;17.714;2024-01-11T04:18:56;100673.97;;;-4.98;79.95
83246;BME280;73140;46.754;17.714;2024-01-11T04:21:23;100733.50;;;-4.66;79.77
83246;BME280;73140;46.754;17.714;2024-01-11T04:23:50;100776.06;;;-4.33;80.01
83246;BME280;73140;46.754;17.714;2024-01-11T04:26:17;100857.09;;;-4.02;80.08
83246;BME280;73140;46.754;17.714;2024-01-11T04:28:44;100788.44;;;-4.39;79.84
83246;BME280;73140;46.754;17.714;2024-01-11T04:31:11;100791.69;;;-4.31;79.02
83246;BME280;73140;46.754;17.714;2024-01-11T04:33:41;100779.25;;;-4.45;79.32
83246;BME280;73140;46.754;17.714;2024-01-11T04:36:08;100800.16;;;-4.42;80.43
83246;BME280;73140;46.754;17.714;2024-01-11T04:38:34;100721.91;;;-4.71;81.09
83246;BME280;73140;46.754;17.714;2024-01-11T04:41:01;100723.88;;;-4.59;81.96
83246;BME280;73140;46.754;17.714;2024-01-11T04:43:27;100755.69;;;-4.40;82.93
83246;BME280;73140;46.754;17.714;2024-01-11T04:45:56;100829.84;;;-4.08;83.61
83246;BME280;73140;46.754;17.714;2024-01-11T04:48:22;100731.75;;;-4.57;83.76
83246;BME280;73140;46.754;17.714;2024-01-11T04:50:48;100768.69;;;-4.38;84.32
83246;BME280;73140;46.754;17.714;2024-01-11T04:53:14;100715.38;;;-4.48;83.40
83246;BME280;73140;46.754;17.714;2024-01-11T04:55:40;100755.69;;;-4.19;82.51
83246;BME280;73140;46.754;17.714;2024-01-11T04:58:08;100721.06;;;-4.52;81.91
83246;BME280;73140;46.754;17.714;2024-01-11T05:00:34;100772.44;;;-4.35;83.13
83246;BME280;73140;46.754;17.714;2024-01-11T05:03:00;100792.56;;;-4.41;84.37
83246;BME280;73140;46.754;17.714;2024-01-11T05:05:26;100808.91;;;-4.11;84.42
83246;BME280;73140;46.754;17.714;2024-01-11T05:07:52;100743.97;;;-4.65;85.38
83246;BME280;73140;46.754;17.714;2024-01-11T05:10:18;100738.56;;;-4.68;85.06
83246;BME280;73140;46.754;17.714;2024-01-11T05:12:44;100734.91;;;-4.80;84.06
83246;BME280;73140;46.754;17.714;2024-01-11T05:15:12;100794.06;;;-4.63;83.82
83246;BME280;73140;46.754;17.714;2024-01-11T05:17:38;100769.25;;;-4.71;83.69
83246;BME280;73140;46.754;17.714;2024-01-11T05:20:05;100798.81;;;-4.67;84.98
83246;BME280;73140;46.754;17.714;2024-01-11T05:22:32;100734.63;;;-4.83;85.13
83246;BME280;73140;46.754;17.714;2024-01-11T05:24:58;100654.34;;;-5.35;85.12
83246;BME280;73140;46.754;17.714;2024-01-11T05:27:24;100814.41;;;-4.66;84.54
83246;BME280;73140;46.754;17.714;2024-01-11T05:29:50;100827.09;;;-4.59;84.59
83246;BME280;73140;46.754;17.714;2024-01-11T05:32:17;100739.06;;;-5.01;85.39
83246;BME280;73140;46.754;17.714;2024-01-11T05:34:43;100759.53;;;-4.84;85.33
83246;BME280;73140;46.754;17.714;2024-01-11T05:37:09;100839.28;;;-4.48;86.34
83246;BME280;73140;46.754;17.714;2024-01-11T05:39:35;100824.53;;;-4.49;86.69
83246;BME280;73140;46.754;17.714;2024-01-11T05:42:01;100800.69;;;-4.75;86.67
83246;BME280;73140;46.754;17.714;2024-01-11T05:44:27;100840.75;;;-4.60;86.55
83246;BME280;73140;46.754;17.714;2024-01-11T05:46:53;100810.88;;;-4.77;86.88
83246;BME280;73140;46.754;17.714;2024-01-11T05:49:21;100850.75;;;-4.73;86.64
83246;BME280;73140;46.754;17.714;2024-01-11T05:51:47;100778.22;;;-5.05;86.73
83246;BME280;73140;46.754;17.714;2024-01-11T05:54:13;100687.31;;;-5.60;86.95
83246;BME280;73140;46.754;17.714;2024-01-11T05:56:39;100682.88;;;-5.71;86.66
83246;BME280;73140;46.754;17.714;2024-01-11T05:59:05;100791.97;;;-5.33;86.77
83246;BME280;73140;46.754;17.714;2024-01-11T06:01:31;100819.84;;;-5.10;86.75
83246;BME280;73140;46.754;17.714;2024-01-11T06:03:57;100731.72;;;-5.44;86.88
83246;BME280;73140;46.754;17.714;2024-01-11T06:06:25;100732.22;;;-5.48;86.99
83246;BME280;73140;46.754;17.714;2024-01-11T06:08:51;100806.09;;;-5.01;86.81
83246;BME280;73140;46.754;17.714;2024-01-11T06:11:17;100665.41;;;-5.84;87.19
83246;BME280;73140;46.754;17.714;2024-01-11T06:13:44;100703.06;;;-5.57;86.84
83246;BME280;73140;46.754;17.714;2024-01-11T06:16:10;100806.47;;;-5.06;87.32
83246;BME280;73140;46.754;17.714;2024-01-11T06:18:36;100789.66;;;-5.11;86.78
83246;BME280;73140;46.754;17.714;2024-01-11T06:21:02;100716.13;;;-5.27;87.07
83246;BME280;73140;46.754;17.714;2024-01-11T06:23:30;100832.06;;;-4.70;87.22
83246;BME280;73140;46.754;17.714;2024-01-11T06:25:56;100740.19;;;-5.07;87.08
83246;BME280;73140;46.754;17.714;2024-01-11T06:28:22;100715.22;;;-4.98;86.47
83246;BME280;73140;46.754;17.714;2024-01-11T06:30:48;100709.94;;;-5.00;86.31
83246;BME280;73140;46.754;17.714;2024-01-11T06:33:14;100742.81;;;-4.97;86.41
83246;BME280;73140;46.754;17.714;2024-01-11T06:35:40;100717.25;;;-5.04;86.08
83246;BME280;73140;46.754;17.714;2024-01-11T06:38:06;100733.56;;;-4.85;85.48
83246;BME280;73140;46.754;17.714;2024-01-11T06:40:34;100713.34;;;-5.09;84.52
83246;BME280;73140;46.754;17.714;2024-01-11T06:43:01;100825.50;;;-4.67;84.78
83246;BME280;73140;46.754;17.714;2024-01-11T06:45:27;100731.63;;;-5.16;84.70
83246;BME280;73140;46.754;17.714;2024-01-11T06:47:53;100777.47;;;-5.04;85.30
83246;BME280;73140;46.754;17.714;2024-01-11T06:50:19;100778.41;;;-4.93;85.31
83246;BME280;73140;46.754;17.714;2024-01-11T06:52:45;100709.91;;;-5.29;84.94
83246;BME280;73140;46.754;17.714;2024-01-11T06:55:11;100838.25;;;-4.68;85.58
83246;BME280;73140;46.754;17.714;2024-01-11T06:57:38;100709.00;;;-5.29;84.88
83246;BME280;73140;46.754;17.714;2024-01-11T07:00:06;100793.50;;;-4.69;84.56
83246;BME280;73140;46.754;17.714;2024-01-11T07:02:33;100824.19;;;-4.43;84.71
83246;BME280;73140;46.754;17.714;2024-01-11T07:04:59;100769.41;;;-4.59;84.40
83246;BME280;73140;46.754;17.714;2024-01-11T07:07:25;100760.00;;;-4.59;83.93
83246;BME280;73140;46.754;17.714;2024-01-11T07:09:52;100728.31;;;-4.77;84.05
83246;BME280;73140;46.754;17.714;2024-01-11T07:12:21;100736.22;;;-4.75;84.08
83246;BME280;73140;46.754;17.714;2024-01-11T07:14:48;100673.16;;;-5.07;83.88
83246;BME280;73140;46.754;17.714;2024-01-11T07:17:15;100759.63;;;-4.53;83.11
83246;BME280;73140;46.754;17.714;2024-01-11T07:19:41;100752.63;;;-4.54;83.39
83246;BME280;73140;46.754;17.714;2024-01-11T07:22:14;100683.16;;;-4.82;82.16
83246;BME280;73140;46.754;17.714;2024-01-11T07:25:03;100728.56;;;-4.45;82.67
83246;BME280;73140;46.754;17.714;2024-01-11T07:53:16;100658.13;;;-3.51;77.40
83246;BME280;73140;46.754;17.714;2024-01-11T07:56:02;100792.97;;;-2.53;77.79
83246;BME280;73140;46.754;17.714;2024-01-11T07:58:31;100701.03;;;-3.01;78.16
83246;BME280;73140;46.754;17.714;2024-01-11T08:01:15;100729.13;;;-2.74;77.93
83246;BME280;73140;46.754;17.714;2024-01-11T08:03:51;100684.66;;;-2.90;75.79
83246;BME280;73140;46.754;17.714;2024-01-11T08:06:19;100707.16;;;-2.79;76.60
83246;BME280;73140;46.754;17.714;2024-01-11T08:08:49;100693.56;;;-2.76;76.17
83246;BME280;73140;46.754;17.714;2024-01-11T08:11:19;100640.28;;;-3.06;76.77
83246;BME280;73140;46.754;17.714;2024-01-11T08:13:45;100750.56;;;-2.65;76.57
83246;BME280;73140;46.754;17.714;2024-01-11T08:16:21;100764.25;;;-2.56;76.87
83246;BME280;73140;46.754;17.714;2024-01-11T08:19:03;100784.81;;;-2.25;75.66
83246;BME280;73140;46.754;17.714;2024-01-11T08:21:33;100699.47;;;-2.67;75.35
83246;BME280;73140;46.754;17.714;2024-01-11T08:24:02;100629.66;;;-3.09;76.00
83246;BME280;73140;46.754;17.714;2024-01-11T08:26:29;100803.91;;;-2.13;75.15
83246;BME280;73140;46.754;17.714;2024-01-11T08:28:55;100683.56;;;-2.72;75.91
83246;BME280;73140;46.754;17.714;2024-01-11T08:31:32;100800.28;;;-1.94;76.49
83246;BME280;73140;46.754;17.714;2024-01-11T08:34:02;100647.03;;;-2.65;74.86
83246;BME280;73140;46.754;17.714;2024-01-11T08:36:32;100822.41;;;-1.87;75.25
83246;BME280;73140;46.754;17.714;2024-01-11T08:39:03;100719.97;;;-2.15;74.99
83246;BME280;73140;46.754;17.714;2024-01-11T08:41:38;100631.09;;;-2.59;75.04
83246;BME280;73140;46.754;17.714;2024-01-11T08:44:04;100672.16;;;-2.30;73.90
83246;BME280;73140;46.754;17.714;2024-01-11T08:46:34;100760.16;;;-1.99;74.84
83246;BME280;73140;46.754;17.714;2024-01-11T08:49:00;100735.38;;;-1.95;74.46
83246;BME280;73140;46.754;17.714;2024-01-11T08:51:36;100656.06;;;-2.26;75.83
83246;BME280;73140;46.754;17.714;2024-01-11T08:54:04;100699.19;;;-2.05;75.55
83246;BME280;73140;46.754;17.714;2024-01-11T08:56:32;100688.03;;;-2.04;75.50
83246;BME280;73140;46.754;17.714;2024-01-11T08:58:58;100710.63;;;-1.80;75.13
83246;BME280;73140;46.754;17.714;2024-01-11T09:01:24;100677.41;;;-2.07;74.52
83246;BME280;73140;46.754;17.714;2024-01-11T09:03:53;100736.31;;;-1.83;75.10
83246;BME280;73140;46.754;17.714;2024-01-11T09:06:19;100754.88;;;-1.55;74.98
83246;BME280;73140;46.754;17.714;2024-01-11T09:08:45;100682.31;;;-2.00;75.32
83246;BME280;73140;46.754;17.714;2024-01-11T09:11:13;100663.63;;;-1.96;76.57
83246;BME280;73140;46.754;17.714;2024-01-11T09:13:41;100730.41;;;-1.59;75.12
83246;BME280;73140;46.754;17.714;2024-01-11T09:16:07;100779.50;;;-1.38;76.31
83246;BME280;73140;46.754;17.714;2024-01-11T09:18:35;100728.75;;;-1.47;75.82
83246;BME280;73140;46.754;17.714;2024-01-11T09:21:01;100736.06;;;-1.41;75.11
83246;BME280;73140;46.754;17.714;2024-01-11T09:23:27;100766.00;;;-1.23;76.02
83246;BME280;73140;46.754;17.714;2024-01-11T09:25:53;100674.72;;;-1.52;76.38
83246;BME280;73140;46.754;17.714;2024-01-11T09:28:21;100768.03;;;-1.07;75.30
83246;BME280;73140;46.754;17.714;2024-01-11T09:30:47;100756.31;;;-1.02;75.47
83246;BME280;73140;46.754;17.714;2024-01-11T09:33:13;100739.28;;;-0.99;76.06
83246;BME280;73140;46.754;17.714;2024-01-11T09:35:39;100735.78;;;-0.99;76.41
83246;BME280;73140;46.754;17.714;2024-01-11T09:38:05;100697.41;;;-1.26;77.59
83246;BME280;73140;46.754;17.714;2024-01-11T09:40:31;100635.94;;;-1.62;76.31
83246;BME280;73140;46.754;17.714;2024-01-11T09:42:57;100734.19;;;-0.97;75.52
83246;BME280;73140;46.754;17.714;2024-01-11T09:45:25;100676.19;;;-1.21;75.83
83246;BME280;73140;46.754;17.714;2024-01-11T09:47:52;100686.56;;;-1.09;75.39
83246;BME280;73140;46.754;17.714;2024-01-11T09:50:18;100705.63;;;-0.97;75.71
83246;BME280;73140;46.754;17.714;2024-01-11T09:52:46;100698.94;;;-0.82;76.38
83246;BME280;73140;46.754;17.714;2024-01-11T09:55:13;100661.94;;;-0.91;76.26
83246;BME280;73140;46.754;17.714;2024-01-11T09:57:41;100698.47;;;-0.65;75.81
83246;BME280;73140;46.754;17.714;2024-01-11T10:00:13;100664.91;;;-0.98;75.13
83246;BME280;73140;46.754;17.714;2024-01-11T10:02:41;100604.91;;;-1.26;74.98
83246;BME280;73140;46.754;17.714;2024-01-11T10:05:07;100694.56;;;-0.83;76.11
83246;BME280;73140;46.754;17.714;2024-01-11T10:07:34;100652.91;;;-0.96;75.99
83246;BME280;73140;46.754;17.714;2024-01-11T10:10:00;100699.78;;;-0.58;75.02
83246;BME280;73140;46.754;17.714;2024-01-11T10:12:27;100690.09;;;-0.61;76.49
83246;BME280;73140;46.754;17.714;2024-01-11T10:14:53;100679.28;;;-0.67;75.87
83246;BME280;73140;46.754;17.714;2024-01-11T10:17:19;100674.78;;;-0.81;76.04
83246;BME280;73140;46.754;17.714;2024-01-11T10:19:47;100605.78;;;-1.25;76.79
83246;BME280;73140;46.754;17.714;2024-01-11T10:22:13;100662.84;;;-0.79;76.57
83246;BME280;73140;46.754;17.714;2024-01-11T10:24:42;100639.38;;;-0.92;77.67
83246;BME280;73140;46.754;17.714;2024-01-11T10:27:09;100670.84;;;-0.76;77.86
83246;BME280;73140;46.754;17.714;2024-01-11T10:29:35;100614.13;;;-1.06;78.51
83246;BME280;73140;46.754;17.714;2024-01-11T10:32:06;100646.88;;;-0.72;77.56
83246;BME280;73140;46.754;17.714;2024-01-11T10:34:32;100646.44;;;-0.78;77.94
83246;BME280;73140;46.754;17.714;2024-01-11T10:37:00;100589.88;;;-0.82;78.40
83246;BME280;73140;46.754;17.714;2024-01-11T10:39:27;100630.03;;;-0.65;78.11
83246;BME280;73140;46.754;17.714;2024-01-11T10:42:01;100545.22;;;-1.14;78.27
83246;BME280;73140;46.754;17.714;2024-01-11T10:44:33;100604.72;;;-0.56;77.54
83246;BME280;73140;46.754;17.714;2024-01-11T10:47:02;100612.47;;;-0.31;77.31
83246;BME280;73140;46.754;17.714;2024-01-11T10:49:29;100538.41;;;-0.76;76.69
83246;BME280;73140;46.754;17.714;2024-01-11T10:52:02;100590.19;;;-0.41;76.63
83246;BME280;73140;46.754;17.714;2024-01-11T10:54:29;100491.53;;;-0.77;75.58
83246;BME280;73140;46.754;17.714;2024-01-11T10:56:58;100573.47;;;-0.44;76.30
83246;BME280;73140;46.754;17.714;2024-01-11T10:59:31;100577.81;;;-0.32;76.15
83246;BME280;73140;46.754;17.714;2024-01-11T11:02:03;100620.97;;;-0.09;74.83
83246;BME280;73140;46.754;17.714;2024-01-11T11:04:32;100582.44;;;-0.15;76.10
83246;BME280;73140;46.754;17.714;2024-01-11T11:07:02;100576.47;;;-0.14;75.36
83246;BME280;73140;46.754;17.714;2024-01-11T11:09:29;100511.34;;;-0.41;73.97
83246;BME280;73140;46.754;17.714;2024-01-11T11:11:58;100533.94;;;-0.40;74.49
83246;BME280;73140;46.754;17.714;2024-01-11T11:14:24;100591.19;;;-0.01;73.80
83246;BME280;73140;46.754;17.714;2024-01-11T11:16:51;100515.34;;;-0.33;74.76
83246;BME280;73140;46.754;17.714;2024-01-11T11:19:18;100531.41;;;-0.01;73.79
83246;BME280;73140;46.754;17.714;2024-01-11T11:21:45;100571.91;;;0.22;73.27
83246;BME280;73140;46.754;17.714;2024-01-11T11:24:12;100540.19;;;0.01;73.14
83246;BME280;73140;46.754;17.714;2024-01-11T11:26:39;100545.06;;;-0.04;72.58
83246;BME280;73140;46.754;17.714;2024-01-11T11:29:05;100550.63;;;0.14;72.65
83246;BME280;73140;46.754;17.714;2024-01-11T11:31:35;100559.41;;;0.29;71.60
83246;BME280;73140;46.754;17.714;2024-01-11T11:34:01;100507.41;;;0.03;72.11
83246;BME280;73140;46.754;17.714;2024-01-11T11:36:29;100567.13;;;0.15;72.15
83246;BME280;73140;46.754;17.714;2024-01-11T11:38:59;100547.81;;;0.11;73.35
83246;BME280;73140;46.754;17.714;2024-01-11T11:41:28;100514.81;;;0.23;72.50
83246;BME280;73140;46.754;17.714;2024-01-11T11:44:00;100481.00;;;-0.03;72.08
83246;BME280;73140;46.754;17.714;2024-01-11T11:46:27;100428.59;;;-0.22;72.48
83246;BME280;73140;46.754;17.714;2024-01-11T11:48:53;100514.38;;;0.43;72.07
83246;BME280;73140;46.754;17.714;2024-01-11T11:51:21;100407.81;;;-0.09;71.35
83246;BME280;73140;46.754;17.714;2024-01-11T11:53:49;100439.81;;;0.03;71.77
83246;BME280;73140;46.754;17.714;2024-01-11T11:56:17;100499.53;;;0.56;70.73
83246;BME280;73140;46.754;17.714;2024-01-11T11:58:46;100527.06;;;0.52;70.06
83246;BME280;73140;46.754;17.714;2024-01-11T12:01:13;100486.78;;;0.32;70.47
83246;BME280;73140;46.754;17.714;2024-01-11T12:03:41;100443.28;;;0.30;70.41
83246;BME280;73140;46.754;17.714;2024-01-11T12:06:09;100470.56;;;0.50;70.63
83246;BME280;73140;46.754;17.714;2024-01-11T12:08:41;100430.88;;;0.26;71.03
83246;BME280;73140;46.754;17.714;2024-01-11T12:11:07;100502.13;;;0.82;70.41
83246;BME280;73140;46.754;17.714;2024-01-11T12:13:37;100482.25;;;0.56;69.97
83246;BME280;73140;46.754;17.714;2024-01-11T12:16:04;100516.25;;;0.72;70.32
83246;BME280;73140;46.754;17.714;2024-01-11T12:18:31;100448.97;;;0.37;69.92
83246;BME280;73140;46.754;17.714;2024-01-11T12:20:57;100483.72;;;0.66;69.83
83246;BME280;73140;46.754;17.714;2024-01-11T12:23:23;100479.81;;;0.72;67.41
83246;BME280;73140;46.754;17.714;2024-01-11T12:25:49;100473.63;;;0.57;66.83
83246;BME280;73140;46.754;17.714;2024-01-11T12:28:16;100414.13;;;0.35;66.72
83246;BME280;73140;46.754;17.714;2024-01-11T12:30:42;100454.63;;;0.58;67.21
83246;BME280;73140;46.754;17.714;2024-01-11T12:33:14;100463.09;;;0.69;66.14
83246;BME280;73140;46.754;17.714;2024-01-11T12:35:41;100419.91;;;0.44;63.67
83246;BME280;73140;46.754;17.714;2024-01-11T12:38:07;100472.09;;;0.74;63.90
83246;BME280;73140;46.754;17.714;2024-01-11T12:40:35;100467.81;;;0.74;64.13
83246;BME280;73140;46.754;17.714;2024-01-11T12:43:03;100471.28;;;0.75;66.01
83246;BME280;73140;46.754;17.714;2024-01-11T12:45:29;100397.84;;;0.38;65.64
83246;BME280;73140;46.754;17.714;2024-01-11T12:47:58;100384.81;;;0.38;62.04
83246;BME280;73140;46.754;17.714;2024-01-11T12:50:25;100390.31;;;0.42;61.98
83246;BME280;73140;46.754;17.714;2024-01-11T12:53:07;100453.19;;;0.91;60.89
83246;BME280;73140;46.754;17.714;2024-01-11T12:55:33;100458.78;;;0.97;60.01
83246;BME280;73140;46.754;17.714;2024-01-11T12:58:04;100413.31;;;0.77;58.25
83246;BME280;73140;46.754;17.714;2024-01-11T13:00:31;100374.50;;;0.67;56.47
83246;BME280;73140;46.754;17.714;2024-01-11T13:02:57;100415.06;;;0.64;56.45
83246;BME280;73140;46.754;17.714;2024-01-11T13:05:24;100444.88;;;0.69;57.36
83246;BME280;73140;46.754;17.714;2024-01-11T13:07:51;100440.66;;;0.71;56.60